createdAt,value
2022-07-28T00:08:48.564Z,1020.7
2022-07-28T00:18:25.525Z,1020.7
2022-07-28T00:28:02.200Z,1020.73
2022-07-28T00:37:39.917Z,1020.63
2022-07-28T00:47:15.728Z,1020.63
2022-07-28T00:56:52.564Z,1020.65
2022-07-28T01:06:29.527Z,1020.58
2022-07-28T01:16:06.734Z,1020.58
2022-07-28T01:25:48.047Z,1020.59
2022-07-28T01:35:20.023Z,1020.53
2022-07-28T01:54:33.595Z,1020.58
2022-07-28T02:04:10.553Z,1020.52
2022-07-28T02:13:47.435Z,1020.69
2022-07-28T02:23:24.110Z,1020.66
2022-07-28T02:33:01.322Z,1020.76
2022-07-28T02:42:38.544Z,1020.74
2022-07-28T02:52:15.249Z,1020.78
2022-07-28T03:01:52.115Z,1020.73
2022-07-28T03:21:05.995Z,1020.81
2022-07-28T03:30:43.030Z,1020.8
2022-07-28T03:40:19.844Z,1020.87
2022-07-28T03:49:57.298Z,1020.88
2022-07-28T03:59:34.363Z,1020.84
2022-07-28T04:09:11.998Z,1020.88
2022-07-28T04:18:49.547Z,1020.84
2022-07-28T04:28:27.138Z,1020.75
2022-07-28T04:38:05.005Z,1020.72
2022-07-28T04:47:42.628Z,1020.85
2022-07-28T05:06:57.960Z,1020.66
2022-07-28T05:16:35.573Z,1020.61
2022-07-28T05:35:51.787Z,1020.56
2022-07-28T05:45:30.150Z,1020.55
2022-07-28T05:55:06.873Z,1020.61
2022-07-28T06:04:44.600Z,1020.56
2022-07-28T06:14:22.388Z,1020.53
2022-07-28T06:23:59.644Z,1020.63
2022-07-28T06:33:37.237Z,1020.57
2022-07-28T06:43:15.108Z,1020.57
2022-07-28T06:52:52.941Z,1020.49
2022-07-28T07:02:30.665Z,1020.39
2022-07-28T07:12:08.450Z,1020.25
2022-07-28T07:21:46.519Z,1020.33
2022-07-28T07:31:23.979Z,1020.14
2022-07-28T07:41:01.370Z,1020.16
2022-07-28T07:50:38.758Z,1019.96
2022-07-28T08:00:27.854Z,1019.87
2022-07-28T08:09:54.310Z,1019.74
2022-07-28T08:19:32.234Z,1019.76
2022-07-28T08:29:10.292Z,1019.71
2022-07-28T08:38:48.390Z,1019.65
2022-07-28T08:48:27.032Z,1019.53
2022-07-28T08:58:05.925Z,1019.39
2022-07-28T09:07:44.511Z,1019.38
2022-07-28T09:17:22.970Z,1019.23
2022-07-28T09:27:01.648Z,1019.13
2022-07-28T09:36:47.892Z,1019.01
2022-07-28T09:46:35.778Z,1018.83
2022-07-28T09:56:18.874Z,1018.74
2022-07-28T10:05:59.740Z,1018.49
2022-07-28T10:15:42.466Z,1018.36
2022-07-28T10:25:23.869Z,1018.17
2022-07-28T10:35:02.535Z,1017.99
2022-07-28T10:44:44.371Z,1018.02
2022-07-28T10:54:25.924Z,1017.88
2022-07-28T11:04:00.796Z,1018.01
2022-07-28T11:13:32.890Z,1017.8
2022-07-28T11:23:17.061Z,1017.68
2022-07-28T11:32:59.290Z,1017.46
2022-07-28T11:42:39.627Z,1017.37
2022-07-28T11:52:18.335Z,1017.35
2022-07-28T12:01:58.635Z,1017.36
2022-07-28T12:30:54.248Z,1017.2
2022-07-28T12:40:32.239Z,1016.99
2022-07-28T12:50:07.228Z,1017
2022-07-28T12:59:46.210Z,1016.73
2022-07-28T13:19:04.008Z,1016.56
2022-07-28T13:28:43.271Z,1016.66
2022-07-28T13:38:25.395Z,1016.52
2022-07-28T13:47:57.700Z,1016.34
2022-07-28T13:57:35.923Z,1016.47
2022-07-28T14:07:14.497Z,1016.39
2022-07-28T14:16:51.923Z,1016.32
2022-07-28T14:26:38.014Z,1016.1
2022-07-28T14:36:13.708Z,1016.39
2022-07-28T14:45:50.554Z,1016.21
2022-07-28T14:55:26.762Z,1016.12
2022-07-28T15:05:04.869Z,1016.08
2022-07-28T15:14:38.983Z,1016.1
2022-07-28T15:33:47.968Z,1016.1
2022-07-28T15:43:23.672Z,1015.87
2022-07-28T16:12:12.966Z,1015.85
2022-07-28T16:21:47.220Z,1015.92
2022-07-28T16:31:20.400Z,1015.99
2022-07-28T16:40:55.593Z,1015.9
2022-07-28T16:50:31.754Z,1015.94
2022-07-28T17:00:08.501Z,1015.92
2022-07-28T17:09:45.577Z,1015.91
2022-07-28T17:19:22.439Z,1015.8
2022-07-28T17:28:59.444Z,1015.93
2022-07-28T17:38:36.022Z,1016.03
2022-07-28T17:48:12.627Z,1016.04
2022-07-28T17:57:49.550Z,1016.09
2022-07-28T18:07:26.480Z,1016.06
2022-07-28T18:17:02.529Z,1016.12
2022-07-28T18:26:38.992Z,1016.11
2022-07-28T18:36:15.886Z,1016.12
2022-07-28T18:45:52.741Z,1016.23
2022-07-28T18:55:29.208Z,1016.3
2022-07-28T19:14:43.154Z,1016.58
2022-07-28T19:33:56.362Z,1016.8
2022-07-28T19:53:09.692Z,1016.96
2022-07-28T20:02:46.161Z,1017.12
2022-07-28T20:21:59.469Z,1017.3
2022-07-28T20:31:36.835Z,1017.38
2022-07-28T20:50:50.980Z,1017.5
2022-07-28T21:00:27.800Z,1017.48
2022-07-28T21:10:04.611Z,1017.55
2022-07-28T21:19:41.453Z,1017.61
2022-07-28T21:48:32.575Z,1017.85
2022-07-28T21:58:10.127Z,1017.98
2022-07-28T22:07:47.650Z,1018.12
2022-07-28T22:17:24.967Z,1018.22
2022-07-28T22:27:02.243Z,1018.11
2022-07-28T22:36:39.664Z,1018.22
2022-07-28T22:46:16.740Z,1018.1
2022-07-28T22:55:54.468Z,1018.13
2022-07-28T23:05:31.657Z,1018.19
2022-07-28T23:15:08.898Z,1018.2
2022-07-28T23:24:46.049Z,1018.2
2022-07-28T23:34:23.750Z,1018.15
2022-07-28T23:44:01.298Z,1017.95
2022-07-28T23:53:38.494Z,1017.89
